Time;durP1;ratioP1;P1;durP2;ratioP2;P2;SDS_P1;SDS_P2;PMS_P1;PMS_P2;Temp;Humidity;BMP_temperature;BMP_pressure;BME280_temperature;BME280_humidity;BME280_pressure;Samples;Min_cycle;Max_cycle;Signal;HPM_P1;HPM_P2
2023/04/25 00:01:06;;;;;;;1.48;1.35;;;10.10;99.90;;;;;;5021607;28;20029;-70
2023/04/25 00:03:32;;;;;;;3.22;1.65;;;10.10;99.90;;;;;;5004562;28;20117;-70
2023/04/25 00:06:02;;;;;;;2.00;1.50;;;10.10;99.90;;;;;;5004727;28;20120;-70
2023/04/25 00:08:29;;;;;;;1.75;1.25;;;10.10;99.90;;;;;;5022464;28;20018;-70
2023/04/25 00:10:55;;;;;;;2.28;1.45;;;10.10;99.90;;;;;;5022337;28;20080;-70
2023/04/25 00:13:21;;;;;;;1.52;1.33;;;10.10;99.90;;;;;;5019161;28;20018;-70
2023/04/25 00:15:47;;;;;;;2.40;1.40;;;10.10;99.90;;;;;;5018727;28;20029;-70
2023/04/25 00:18:14;;;;;;;1.55;1.45;;;10.00;99.90;;;;;;5001722;28;20026;-70
2023/04/25 00:20:40;;;;;;;1.55;1.42;;;10.00;99.90;;;;;;5018427;28;20038;-70
2023/04/25 00:23:06;;;;;;;2.47;1.60;;;10.10;99.90;;;;;;5000695;28;20030;-70
2023/04/25 00:25:31;;;;;;;2.85;1.80;;;10.10;99.90;;;;;;5018580;28;20432;-70
2023/04/25 00:27:57;;;;;;;2.90;1.85;;;10.00;99.90;;;;;;5017717;28;20026;-70
2023/04/25 00:30:23;;;;;;;4.90;2.00;;;10.00;99.90;;;;;;5018209;28;20126;-70
2023/04/25 00:32:49;;;;;;;4.38;1.90;;;10.00;99.90;;;;;;5000030;28;20108;-70
2023/04/25 00:35:15;;;;;;;2.63;1.73;;;10.00;99.90;;;;;;5017738;28;20029;-70
2023/04/25 00:37:41;;;;;;;2.92;2.03;;;10.00;99.90;;;;;;5017483;28;20022;-70
2023/04/25 00:40:07;;;;;;;1.77;1.67;;;10.00;99.90;;;;;;4999792;28;20128;-70
2023/04/25 00:42:34;;;;;;;1.98;1.80;;;10.00;99.90;;;;;;5017255;28;20021;-70
2023/04/25 00:45:01;;;;;;;2.38;1.83;;;10.00;99.90;;;;;;5017213;28;20105;-70
2023/04/25 00:47:28;;;;;;;2.33;2.03;;;10.00;99.90;;;;;;5017383;28;20033;-71
2023/04/25 00:49:53;;;;;;;2.65;1.92;;;9.90;99.90;;;;;;4999913;28;20103;-70
2023/04/25 00:52:20;;;;;;;2.88;2.03;;;9.90;99.90;;;;;;5017354;28;20454;-70
2023/04/25 00:54:46;;;;;;;3.78;1.80;;;9.90;99.90;;;;;;5016710;28;20470;-70
2023/04/25 00:57:11;;;;;;;1.70;1.60;;;9.90;99.90;;;;;;5016928;28;20033;-70
2023/04/25 00:59:38;;;;;;;2.08;1.88;;;9.90;99.90;;;;;;5016497;28;20034;-70
2023/04/25 01:02:05;;;;;;;3.13;2.20;;;9.90;99.90;;;;;;5017041;28;20022;-70
2023/04/25 01:04:30;;;;;;;2.50;1.95;;;9.90;99.90;;;;;;4998885;28;20642;-70
2023/04/25 01:06:57;;;;;;;4.75;1.88;;;9.90;99.90;;;;;;5016472;28;20041;-70
2023/04/25 01:09:24;;;;;;;4.22;2.05;;;9.90;99.90;;;;;;4999190;28;20040;-70
2023/04/25 01:11:50;;;;;;;2.85;1.80;;;9.90;99.90;;;;;;4999450;28;20469;-70
2023/04/25 01:14:15;;;;;;;3.15;1.80;;;9.90;99.90;;;;;;5017367;28;20025;-70
2023/04/25 01:16:42;;;;;;;2.20;1.75;;;9.90;99.90;;;;;;5017055;28;20461;-69
2023/04/25 01:19:13;;;;;;;2.03;1.83;;;9.90;99.90;;;;;;5016863;28;20026;-70
2023/04/25 01:21:39;;;;;;;3.20;2.05;;;9.90;99.90;;;;;;4999405;28;20026;-70
2023/04/25 01:24:05;;;;;;;3.00;2.10;;;9.90;99.90;;;;;;4999547;28;20034;-70
2023/04/25 01:26:32;;;;;;;2.38;1.80;;;9.90;99.90;;;;;;5015538;28;20153;-70
2023/04/25 01:28:59;;;;;;;3.08;1.85;;;9.80;99.90;;;;;;5016326;28;20474;-70
2023/04/25 01:31:25;;;;;;;3.92;1.58;;;9.90;99.90;;;;;;4998698;28;20494;-70
2023/04/25 01:33:51;;;;;;;3.00;2.25;;;9.80;99.90;;;;;;5016536;28;20100;-70
2023/04/25 01:36:17;;;;;;;2.65;1.63;;;9.80;99.90;;;;;;5015647;28;20029;-70
2023/04/25 01:38:43;;;;;;;3.83;1.75;;;9.80;99.90;;;;;;5016298;28;20030;-70
2023/04/25 01:41:09;;;;;;;7.30;1.70;;;9.80;99.90;;;;;;4998598;28;20033;-70
2023/04/25 01:43:35;;;;;;;1.92;1.80;;;9.80;99.90;;;;;;5015726;28;20030;-70
2023/04/25 01:46:01;;;;;;;2.53;2.08;;;9.80;99.90;;;;;;5016021;28;20081;-71
2023/04/25 01:48:27;;;;;;;1.92;1.75;;;9.70;99.90;;;;;;4998044;28;20030;-70
2023/04/25 01:50:52;;;;;;;3.05;2.40;;;9.70;99.90;;;;;;4997668;28;20030;-70
2023/04/25 01:53:18;;;;;;;4.03;2.30;;;9.70;99.90;;;;;;5016072;28;20026;-70
2023/04/25 01:55:44;;;;;;;3.05;2.13;;;9.60;99.90;;;;;;5015946;28;20401;-70
2023/04/25 01:58:12;;;;;;;3.15;2.03;;;9.70;99.90;;;;;;5016143;28;20060;-70
2023/04/25 02:00:38;;;;;;;2.75;2.20;;;9.60;99.90;;;;;;4998155;28;20481;-70
2023/04/25 02:03:04;;;;;;;2.75;2.40;;;9.50;99.90;;;;;;5016364;28;20196;-70
2023/04/25 02:05:38;;;;;;;2.67;1.90;;;9.50;99.90;;;;;;5015889;28;20022;-70
2023/04/25 02:08:05;;;;;;;8.60;2.28;;;9.50;99.90;;;;;;5015720;28;20033;-70
2023/04/25 02:10:31;;;;;;;4.53;2.45;;;9.50;99.90;;;;;;5016794;28;20116;-70
2023/04/25 02:12:58;;;;;;;4.35;2.40;;;9.40;99.90;;;;;;5000498;28;20033;-70
2023/04/25 02:15:24;;;;;;;4.18;2.38;;;9.40;99.90;;;;;;5000416;28;20026;-71
2023/04/25 02:17:50;;;;;;;3.17;2.50;;;9.40;99.90;;;;;;5017747;28;20076;-70
2023/04/25 02:20:19;;;;;;;4.05;2.30;;;9.30;99.90;;;;;;5000159;28;20491;-70
2023/04/25 02:22:45;;;;;;;3.67;2.05;;;9.40;99.90;;;;;;5017402;28;20040;-70
2023/04/25 02:25:11;;;;;;;2.95;2.30;;;9.30;99.90;;;;;;4999625;28;20113;-70
2023/04/25 02:27:37;;;;;;;5.82;2.67;;;9.30;99.90;;;;;;5016553;28;20073;-70
2023/04/25 02:30:04;;;;;;;5.45;2.47;;;9.30;99.90;;;;;;4999147;28;20034;-70
2023/04/25 02:32:30;;;;;;;3.13;2.20;;;9.30;99.90;;;;;;5017060;28;20367;-70
2023/04/25 02:34:58;;;;;;;3.80;2.35;;;9.20;99.90;;;;;;5016883;28;20030;-70
2023/04/25 02:37:24;;;;;;;2.30;1.90;;;9.20;99.90;;;;;;5015848;28;20029;-70
2023/04/25 02:39:49;;;;;;;2.83;2.40;;;9.10;99.90;;;;;;4998250;28;20034;-70
2023/04/25 02:42:15;;;;;;;2.78;2.25;;;9.10;99.90;;;;;;4998798;28;20026;-70
2023/04/25 02:44:41;;;;;;;5.65;2.30;;;9.20;99.90;;;;;;5015368;28;20441;-70
2023/04/25 02:47:07;;;;;;;4.32;2.20;;;9.20;99.90;;;;;;5015961;28;20072;-70
2023/04/25 02:49:32;;;;;;;3.83;2.22;;;9.20;99.90;;;;;;4998130;28;20425;-69
2023/04/25 02:51:58;;;;;;;3.90;2.25;;;9.20;99.90;;;;;;5016111;28;20026;-70
2023/04/25 02:54:23;;;;;;;3.58;1.85;;;9.20;99.90;;;;;;4997998;28;20032;-70
2023/04/25 02:56:49;;;;;;;2.28;2.08;;;9.10;99.90;;;;;;5015896;28;20037;-70
2023/04/25 02:59:15;;;;;;;3.50;2.33;;;9.10;99.90;;;;;;4998429;28;20041;-70
2023/04/25 03:01:41;;;;;;;3.95;2.00;;;9.10;99.90;;;;;;5015966;28;20581;-70
2023/04/25 03:04:06;;;;;;;9.00;2.20;;;9.10;99.90;;;;;;4997917;28;20026;-70
2023/04/25 03:06:32;;;;;;;4.18;2.20;;;9.10;99.90;;;;;;4997631;28;20216;-70
2023/04/25 03:08:57;;;;;;;2.45;2.25;;;9.10;99.90;;;;;;5015386;28;20029;-70
2023/04/25 03:11:25;;;;;;;2.70;2.13;;;9.00;99.90;;;;;;4997753;28;20112;-70
2023/04/25 03:13:51;;;;;;;3.28;2.45;;;9.00;99.90;;;;;;5015536;28;20474;-70
2023/04/25 03:16:16;;;;;;;3.70;2.28;;;9.00;99.90;;;;;;5015167;28;20030;-70
2023/04/25 03:18:42;;;;;;;3.17;2.50;;;8.90;99.90;;;;;;4997379;28;20036;-70
2023/04/25 03:21:08;;;;;;;3.22;2.67;;;8.90;99.90;;;;;;5014863;28;20489;-70
2023/04/25 03:23:33;;;;;;;3.20;2.60;;;8.90;99.90;;;;;;5015722;28;20086;-70
2023/04/25 03:25:59;;;;;;;3.08;2.58;;;8.80;99.90;;;;;;5014814;28;20548;-70
2023/04/25 03:28:25;;;;;;;4.95;2.80;;;8.80;99.90;;;;;;5015065;28;20053;-70
2023/04/25 03:30:51;;;;;;;2.70;2.50;;;8.90;99.90;;;;;;4997627;28;20026;-70
2023/04/25 03:33:16;;;;;;;3.55;2.15;;;8.80;99.90;;;;;;5015480;28;20374;-70
2023/04/25 03:35:42;;;;;;;3.33;2.30;;;8.80;99.90;;;;;;5014912;28;20500;-70
2023/04/25 03:38:08;;;;;;;3.53;2.50;;;8.70;99.90;;;;;;5015221;28;20022;-70
2023/04/25 03:40:34;;;;;;;2.70;2.10;;;8.80;99.90;;;;;;5015111;28;20527;-70
2023/04/25 03:42:59;;;;;;;3.50;2.50;;;8.80;99.90;;;;;;5016081;28;20041;-70
2023/04/25 03:45:25;;;;;;;2.75;1.95;;;8.70;99.90;;;;;;5015753;28;20046;-70
2023/04/25 03:47:51;;;;;;;3.70;2.30;;;8.70;99.90;;;;;;5015448;28;20026;-70
2023/04/25 03:50:16;;;;;;;3.78;2.75;;;8.60;99.90;;;;;;5018994;28;20033;-70
2023/04/25 03:52:43;;;;;;;4.93;2.20;;;8.60;99.90;;;;;;5018834;28;20032;-70
2023/04/25 03:55:09;;;;;;;2.95;2.35;;;8.50;99.90;;;;;;5018545;28;20099;-70
2023/04/25 03:57:34;;;;;;;2.75;2.38;;;8.50;99.90;;;;;;5001008;28;20476;-70
2023/04/25 04:00:00;;;;;;;3.63;2.30;;;8.50;99.90;;;;;;5019027;28;20041;-70
2023/04/25 04:02:26;;;;;;;3.90;2.42;;;8.50;99.90;;;;;;5000880;28;20026;-70
2023/04/25 04:04:51;;;;;;;5.00;2.42;;;8.50;99.90;;;;;;5001310;28;20375;-70
2023/04/25 04:07:17;;;;;;;2.65;2.30;;;8.40;99.90;;;;;;5018479;28;20026;-69
2023/04/25 04:09:43;;;;;;;5.35;2.88;;;8.40;99.90;;;;;;5018443;28;20429;-70
2023/04/25 04:12:09;;;;;;;2.78;2.00;;;8.30;99.90;;;;;;5017836;28;20026;-69
2023/04/25 04:14:34;;;;;;;3.65;2.85;;;8.30;99.90;;;;;;5000998;28;20034;-69
2023/04/25 04:17:00;;;;;;;3.33;2.58;;;8.30;99.90;;;;;;5018446;28;20026;-70
2023/04/25 04:19:26;;;;;;;2.95;2.40;;;8.30;99.90;;;;;;5017724;28;20462;-69
2023/04/25 04:21:51;;;;;;;6.57;2.80;;;8.20;99.90;;;;;;5000115;28;20026;-69
2023/04/25 04:24:17;;;;;;;6.93;3.03;;;8.20;99.90;;;;;;5018236;28;20366;-69
2023/04/25 04:26:44;;;;;;;4.28;2.58;;;8.10;99.90;;;;;;5000480;28;20454;-70
2023/04/25 04:29:10;;;;;;;2.72;2.50;;;8.10;99.90;;;;;;5017842;28;20025;-71
2023/04/25 04:31:36;;;;;;;4.00;2.40;;;8.10;99.90;;;;;;5002621;28;20033;-75
2023/04/25 04:34:03;;;;;;;7.13;2.83;;;8.10;99.90;;;;;;5002798;28;20026;-74
2023/04/25 04:36:29;;;;;;;6.53;3.08;;;8.00;99.90;;;;;;5003348;28;20093;-74
2023/04/25 04:38:56;;;;;;;2.72;2.15;;;8.00;99.90;;;;;;5002567;28;20125;-74
2023/04/25 04:41:22;;;;;;;5.15;2.50;;;7.90;99.90;;;;;;5020231;28;20457;-75
2023/04/25 04:43:47;;;;;;;8.10;3.55;;;7.90;99.90;;;;;;5002254;28;20117;-74
2023/04/25 04:46:14;;;;;;;2.50;2.30;;;7.80;99.90;;;;;;5002503;28;20188;-74
2023/04/25 04:48:40;;;;;;;8.13;2.85;;;7.80;99.90;;;;;;5002274;28;20083;-73
2023/04/25 04:51:06;;;;;;;4.03;2.25;;;7.70;99.90;;;;;;5019639;28;20026;-73
2023/04/25 04:53:32;;;;;;;3.85;2.50;;;7.70;99.90;;;;;;5019289;28;20053;-74
2023/04/25 04:55:58;;;;;;;6.18;2.63;;;7.60;99.90;;;;;;5019342;28;20029;-73
2023/04/25 04:58:23;;;;;;;4.43;2.85;;;7.60;99.90;;;;;;5001390;28;20033;-74
2023/04/25 05:00:49;;;;;;;3.75;2.75;;;7.60;99.90;;;;;;5020882;28;20041;-73
2023/04/25 05:03:15;;;;;;;2.90;2.38;;;7.50;99.90;;;;;;5001055;28;20030;-74
2023/04/25 05:05:41;;;;;;;4.43;3.08;;;7.60;99.90;;;;;;5019158;28;20022;-73
2023/04/25 05:08:07;;;;;;;2.97;2.70;;;7.50;99.90;;;;;;5000189;28;20474;-73
2023/04/25 05:10:33;;;;;;;4.70;2.90;;;7.50;99.90;;;;;;5002134;28;20038;-74
2023/04/25 05:12:58;;;;;;;5.88;2.75;;;7.40;99.90;;;;;;5019982;28;20069;-72
2023/04/25 05:15:24;;;;;;;5.32;2.78;;;7.40;99.90;;;;;;5018811;28;20029;-72
2023/04/25 05:17:50;;;;;;;4.85;3.30;;;7.40;99.90;;;;;;5018625;28;20096;-73
2023/04/25 05:20:21;;;;;;;3.88;2.75;;;7.30;99.90;;;;;;5019362;28;20037;-72
2023/04/25 05:22:47;;;;;;;3.30;2.40;;;7.30;99.90;;;;;;4999747;28;20030;-73
2023/04/25 05:25:13;;;;;;;5.57;2.88;;;7.40;99.90;;;;;;5000465;28;20049;-73
2023/04/25 05:27:38;;;;;;;4.65;2.85;;;7.50;99.90;;;;;;4999037;28;20096;-72
2023/04/25 05:30:05;;;;;;;3.47;3.00;;;7.60;99.90;;;;;;4999022;28;20144;-72
2023/04/25 05:32:31;;;;;;;6.85;2.70;;;7.70;99.90;;;;;;5016417;28;20157;-71
2023/04/25 05:34:56;;;;;;;8.18;3.05;;;7.80;99.90;;;;;;4998870;28;20061;-73
2023/04/25 05:37:22;;;;;;;4.90;2.72;;;8.00;99.90;;;;;;4999595;28;20030;-72
2023/04/25 05:39:47;;;;;;;4.32;3.03;;;8.10;99.90;;;;;;5016844;28;20038;-72
2023/04/25 05:42:13;;;;;;;5.00;2.55;;;8.30;99.90;;;;;;5017021;28;20022;-72
2023/04/25 05:44:39;;;;;;;4.20;3.10;;;8.40;99.90;;;;;;4998377;28;20126;-72
2023/04/25 05:47:04;;;;;;;6.90;2.70;;;8.60;99.90;;;;;;5017765;28;20026;-73
2023/04/25 05:49:30;;;;;;;3.05;2.47;;;8.70;99.90;;;;;;5017151;28;20034;-72
2023/04/25 05:51:56;;;;;;;4.35;2.38;;;8.90;99.90;;;;;;4999688;28;20025;-72
2023/04/25 05:54:22;;;;;;;4.00;3.00;;;9.00;99.90;;;;;;5017066;28;20030;-72
2023/04/25 05:56:47;;;;;;;4.18;2.75;;;9.20;99.90;;;;;;5016849;28;20022;-72
2023/04/25 05:59:13;;;;;;;2.40;2.20;;;9.40;99.90;;;;;;5016983;28;20037;-72
2023/04/25 06:01:40;;;;;;;3.15;2.47;;;9.70;99.90;;;;;;5017272;28;20033;-72
2023/04/25 06:04:05;;;;;;;3.75;2.20;;;10.20;99.90;;;;;;4997662;28;20030;-73
2023/04/25 06:06:31;;;;;;;8.40;2.20;;;10.70;99.90;;;;;;4998673;28;20120;-73
2023/04/25 06:08:57;;;;;;;4.28;2.33;;;11.00;99.90;;;;;;5015664;28;20030;-73
2023/04/25 06:11:22;;;;;;;2.67;2.20;;;11.20;99.90;;;;;;4996422;28;20039;-72
2023/04/25 06:13:48;;;;;;;3.08;2.53;;;11.50;99.90;;;;;;4997029;28;20022;-72
2023/04/25 06:16:14;;;;;;;4.32;2.33;;;11.70;99.90;;;;;;4997022;28;20032;-72
2023/04/25 06:18:40;;;;;;;3.13;1.83;;;12.00;99.90;;;;;;4996822;28;20096;-72
2023/04/25 06:21:05;;;;;;;4.65;2.63;;;12.30;99.90;;;;;;5014470;28;20026;-72
2023/04/25 06:23:31;;;;;;;3.45;2.30;;;12.70;99.90;;;;;;5014697;28;20030;-73
2023/04/25 06:25:57;;;;;;;3.22;1.90;;;12.90;99.90;;;;;;4997206;28;20026;-73
2023/04/25 06:28:24;;;;;;;4.43;1.60;;;13.00;99.90;;;;;;5014433;28;20022;-73
2023/04/25 06:30:50;;;;;;;2.88;1.90;;;13.40;99.90;;;;;;5014431;28;20026;-73
2023/04/25 06:33:15;;;;;;;2.72;2.20;;;13.90;99.80;;;;;;5014284;28;20508;-73
2023/04/25 06:35:41;;;;;;;4.20;1.88;;;14.10;97.60;;;;;;5014291;28;20026;-73
2023/04/25 06:38:07;;;;;;;3.53;2.33;;;14.20;96.00;;;;;;4996663;28;20073;-73
2023/04/25 06:40:32;;;;;;;2.42;1.98;;;14.10;95.30;;;;;;4997122;28;20040;-73
2023/04/25 06:42:58;;;;;;;3.83;1.98;;;14.30;94.50;;;;;;5014200;28;20026;-73
2023/04/25 06:45:23;;;;;;;3.03;2.17;;;14.00;94.50;;;;;;4996171;28;20508;-73
2023/04/25 06:47:49;;;;;;;4.78;1.95;;;13.70;95.10;;;;;;5013864;28;20042;-73
2023/04/25 06:50:15;;;;;;;1.98;1.55;;;13.90;95.50;;;;;;4996445;28;20117;-74
2023/04/25 06:52:40;;;;;;;2.05;1.67;;;14.10;94.00;;;;;;4996513;28;20057;-73
2023/04/25 06:55:06;;;;;;;1.73;1.50;;;14.40;93.80;;;;;;5014166;28;20029;-73
2023/04/25 06:57:32;;;;;;;2.13;1.70;;;14.70;93.40;;;;;;4996441;28;20100;-73
2023/04/25 06:59:57;;;;;;;2.25;1.50;;;15.00;89.50;;;;;;4996213;28;20148;-72
2023/04/25 07:02:23;;;;;;;3.25;1.65;;;14.90;90.70;;;;;;5014022;28;20057;-73
2023/04/25 07:04:49;;;;;;;3.83;1.95;;;14.60;88.20;;;;;;5013917;28;20044;-73
2023/04/25 07:07:14;;;;;;;3.78;2.00;;;14.30;88.90;;;;;;4996295;28;20094;-73
2023/04/25 07:09:40;;;;;;;2.05;1.85;;;14.20;90.60;;;;;;4996306;28;20036;-73
2023/04/25 07:12:06;;;;;;;2.53;2.10;;;14.10;91.30;;;;;;4996948;28;20481;-73
2023/04/25 07:14:31;;;;;;;3.13;2.03;;;14.20;90.90;;;;;;5014144;28;20026;-73
2023/04/25 07:16:57;;;;;;;4.05;1.85;;;14.30;90.60;;;;;;4996605;28;20030;-73
2023/04/25 07:19:26;;;;;;;2.38;1.55;;;14.40;90.60;;;;;;5013704;28;20034;-73
2023/04/25 07:21:52;;;;;;;1.77;1.67;;;14.30;89.70;;;;;;5014123;28;20085;-73
2023/04/25 07:24:18;;;;;;;3.40;1.90;;;14.50;90.30;;;;;;5000002;28;20045;-73
2023/04/25 07:26:43;;;;;;;1.73;1.63;;;14.60;90.40;;;;;;5017843;28;20377;-73
2023/04/25 07:29:09;;;;;;;2.00;1.80;;;14.90;90.60;;;;;;5017698;28;20030;-73
2023/04/25 07:31:35;;;;;;;2.40;1.83;;;15.30;90.50;;;;;;5000151;28;20492;-73
2023/04/25 07:34:01;;;;;;;2.17;1.63;;;15.40;89.30;;;;;;5017669;28;20025;-73
2023/04/25 07:36:27;;;;;;;3.22;2.05;;;15.70;88.10;;;;;;5017621;28;20101;-73
2023/04/25 07:38:52;;;;;;;3.08;1.92;;;16.00;88.30;;;;;;5017850;28;20088;-73
2023/04/25 07:41:18;;;;;;;3.25;2.08;;;16.40;85.30;;;;;;5000076;28;20485;-73
2023/04/25 07:43:43;;;;;;;3.65;2.10;;;16.60;83.30;;;;;;5017431;28;20022;-73
2023/04/25 07:46:09;;;;;;;1.77;1.67;;;16.70;82.50;;;;;;5017537;28;20053;-73
2023/04/25 07:48:35;;;;;;;1.85;1.75;;;16.80;78.80;;;;;;4999758;28;20474;-64
2023/04/25 07:51:00;;;;;;;3.53;1.70;;;16.40;80.20;;;;;;5017005;28;20026;-64
2023/04/25 07:53:26;;;;;;;3.20;1.75;;;15.90;82.50;;;;;;5017210;28;20109;-64
2023/04/25 07:55:52;;;;;;;2.30;2.10;;;15.60;82.30;;;;;;4999579;28;20026;-64
2023/04/25 07:58:21;;;;;;;2.85;1.92;;;15.60;80.40;;;;;;4999505;28;20124;-64
2023/04/25 08:00:47;;;;;;;;;;;15.90;80.60;;;;;;4999742;28;20041;-65
2023/04/25 08:03:13;;;;;;;1.90;1.70;;;16.00;78.90;;;;;;5017069;28;19905;-64
2023/04/25 08:05:38;;;;;;;3.60;1.50;;;16.40;79.50;;;;;;5016697;28;20026;-64
2023/04/25 08:08:06;;;;;;;2.67;1.60;;;17.00;79.20;;;;;;5017338;28;20061;-64
2023/04/25 08:10:32;;;;;;;2.97;1.60;;;17.30;74.80;;;;;;5016824;28;20116;-64
2023/04/25 08:12:58;;;;;;;2.80;1.20;;;17.40;74.00;;;;;;4999736;28;20026;-73
2023/04/25 08:15:25;;;;;;;1.05;0.93;;;17.70;71.20;;;;;;4999196;28;20033;-74
2023/04/25 08:17:50;;;;;;;4.90;1.50;;;17.50;69.40;;;;;;5016477;28;20144;-74
2023/04/25 08:20:16;;;;;;;1.90;1.70;;;17.00;71.10;;;;;;5016397;28;20038;-74
2023/04/25 08:22:42;;;;;;;1.58;1.48;;;16.90;71.70;;;;;;5016754;28;20069;-74
2023/04/25 08:25:08;;;;;;;2.10;1.90;;;17.10;71.60;;;;;;4999055;28;20109;-74
2023/04/25 08:27:34;;;;;;;4.13;1.77;;;17.60;72.90;;;;;;5016657;28;20058;-74
2023/04/25 08:30:00;;;;;;;3.65;1.88;;;17.60;71.50;;;;;;5016634;28;20041;-74
2023/04/25 08:32:26;;;;;;;3.80;1.58;;;17.30;71.70;;;;;;5016850;28;20026;-74
2023/04/25 08:34:53;;;;;;;1.70;1.60;;;17.20;72.40;;;;;;5015835;28;20454;-74
2023/04/25 08:37:20;;;;;;;2.85;2.03;;;17.90;70.10;;;;;;4998769;28;20097;-74
2023/04/25 08:39:47;;;;;;;2.92;1.80;;;17.80;69.50;;;;;;5016331;28;20038;-74
2023/04/25 08:42:15;;;;;;;2.42;2.08;;;17.10;70.40;;;;;;4998758;28;20030;-73
2023/04/25 08:44:41;;;;;;;2.72;2.03;;;15.90;73.90;;;;;;5016162;28;20030;-74
2023/04/25 08:47:06;;;;;;;2.33;1.90;;;15.00;76.50;;;;;;4998486;28;20033;-74
2023/04/25 08:49:33;;;;;;;3.55;1.90;;;14.40;79.60;;;;;;4998866;28;20026;-74
2023/04/25 08:52:07;;;;;;;2.25;1.98;;;14.10;82.90;;;;;;4998608;28;20026;-74
2023/04/25 08:54:33;;;;;;;2.10;1.90;;;14.10;83.90;;;;;;5016218;28;20366;-74
2023/04/25 08:57:03;;;;;;;6.25;2.20;;;14.80;84.60;;;;;;5015939;28;20033;-74
2023/04/25 08:59:30;;;;;;;2.80;2.17;;;16.00;79.70;;;;;;5016037;28;20121;-74
2023/04/25 09:01:57;;;;;;;3.17;2.20;;;16.00;76.20;;;;;;5015975;28;20068;-74
2023/04/25 09:04:22;;;;;;;2.13;1.80;;;15.70;76.80;;;;;;5015884;28;20048;-74
2023/04/25 09:06:48;;;;;;;2.42;2.20;;;15.20;76.70;;;;;;5015870;28;20105;-74
2023/04/25 09:09:14;;;;;;;6.95;1.80;;;14.60;80.80;;;;;;4997970;28;20038;-73
2023/04/25 09:11:40;;;;;;;2.10;1.88;;;14.00;85.40;;;;;;4998452;28;20030;-74
2023/04/25 09:14:14;;;;;;;2.22;1.42;;;13.50;89.70;;;;;;4998262;28;20476;-74
2023/04/25 09:16:55;;;;;;;3.65;1.48;;;13.30;92.50;;;;;;5016209;28;20022;-74
2023/04/25 09:19:40;;;;;;;2.22;1.80;;;12.80;97.80;;;;;;5000290;28;20034;-75
2023/04/25 09:22:06;;;;;;;3.72;1.35;;;12.50;99.90;;;;;;5017063;28;20477;-74
2023/04/25 09:24:44;;;;;;;2.65;1.60;;;12.40;99.90;;;;;;5016715;28;20033;-73
2023/04/25 09:27:11;;;;;;;2.60;1.25;;;12.30;99.90;;;;;;4999200;28;20033;-73
2023/04/25 09:29:40;;;;;;;8.98;3.15;;;12.50;99.90;;;;;;4998734;28;20477;-73
2023/04/25 09:32:19;;;;;;;5.75;1.95;;;12.70;99.90;;;;;;5016144;28;20026;-74
2023/04/25 09:34:50;;;;;;;1.77;1.38;;;13.00;99.90;;;;;;4999971;28;20034;-73
2023/04/25 09:37:24;;;;;;;1.48;1.20;;;13.20;99.90;;;;;;4998287;28;20030;-73
2023/04/25 09:39:52;;;;;;;3.00;0.80;;;13.20;99.90;;;;;;4998561;28;20030;-73
2023/04/25 09:42:21;;;;;;;0.60;0.57;;;13.00;99.30;;;;;;4998880;28;20153;-73
2023/04/25 09:44:46;;;;;;;;;;;12.80;97.40;;;;;;4999145;28;20046;-72
2023/04/25 09:47:15;;;;;;;2.25;0.73;;;12.60;96.60;;;;;;4997451;28;20313;-74
2023/04/25 09:49:45;;;;;;;1.13;0.70;;;12.40;97.60;;;;;;5015598;28;20025;-73
2023/04/25 09:52:19;;;;;;;1.45;0.60;;;12.40;97.50;;;;;;4998394;28;20026;-73
2023/04/25 09:54:45;;;;;;;2.10;0.50;;;12.30;96.50;;;;;;4998973;28;20120;-72
2023/04/25 09:57:19;;;;;;;1.67;0.70;;;12.20;97.80;;;;;;5000042;28;20030;-72
2023/04/25 09:59:45;;;;;;;1.60;0.50;;;12.20;98.70;;;;;;5017076;28;20029;-72
2023/04/25 10:02:12;;;;;;;4.97;0.88;;;12.10;99.70;;;;;;5016558;28;20022;-72
2023/04/25 10:04:38;;;;;;;0.60;0.60;;;12.00;99.20;;;;;;5016739;28;20029;-72
2023/04/25 10:07:08;;;;;;;5.45;1.10;;;11.90;99.90;;;;;;5016375;28;20029;-71
2023/04/25 10:09:37;;;;;;;1.75;0.80;;;11.90;99.90;;;;;;5015962;28;20117;-71
2023/04/25 10:12:04;;;;;;;0.85;0.80;;;11.80;99.90;;;;;;4999200;28;20022;-72
2023/04/25 10:14:31;;;;;;;1.90;0.88;;;11.40;99.90;;;;;;4997477;28;20373;-72
2023/04/25 10:16:58;;;;;;;2.72;0.88;;;11.00;99.90;;;;;;5015692;28;20119;-72
2023/04/25 10:19:25;;;;;;;1.20;0.80;;;10.60;99.90;;;;;;4997620;28;20029;-73
2023/04/25 10:22:32;;;;;;;2.05;0.45;;;10.50;99.90;;;;;;4997731;28;20025;-73
2023/04/25 10:24:59;;;;;;;0.60;0.40;;;10.60;99.90;;;;;;4919378;29;20027;-72
2023/04/25 10:27:27;;;;;;;1.00;0.70;;;11.20;99.90;;;;;;5001760;28;20045;-72
2023/04/25 10:30:10;;;;;;;1.27;0.77;;;12.80;99.90;;;;;;4997090;28;20021;-72
2023/04/25 10:32:36;;;;;;;3.70;1.13;;;14.80;99.90;;;;;;4997431;28;20033;-71
2023/04/25 10:35:15;;;;;;;0.80;0.80;;;16.30;99.20;;;;;;5014370;28;20026;-72
2023/04/25 10:37:58;;;;;;;1.10;0.68;;;17.60;94.80;;;;;;5014454;28;20353;-71
2023/04/25 10:40:24;;;;;;;3.00;0.70;;;18.80;92.10;;;;;;5014252;28;20026;-71
2023/04/25 10:42:55;;;;;;;1.30;0.63;;;19.00;79.40;;;;;;4996648;28;20022;-72
2023/04/25 10:45:22;;;;;;;2.92;1.05;;;18.40;74.50;;;;;;5013967;28;20038;-71
2023/04/25 10:47:48;;;;;;;1.27;0.77;;;18.40;72.70;;;;;;5014311;28;20113;-71
2023/04/25 10:50:17;;;;;;;2.05;0.90;;;18.70;71.40;;;;;;4996594;28;20030;-71
2023/04/25 10:52:44;;;;;;;3.40;0.90;;;18.60;70.10;;;;;;4996286;28;20030;-71
2023/04/25 10:55:10;;;;;;;1.13;1.00;;;18.10;68.90;;;;;;4996566;28;20026;-72
2023/04/25 10:57:49;;;;;;;2.13;1.33;;;17.50;70.10;;;;;;4996644;28;20080;-72
2023/04/25 11:00:21;;;;;;;1.10;1.00;;;17.00;72.60;;;;;;5014136;28;20076;-72
2023/04/25 11:02:50;;;;;;;2.13;1.10;;;16.60;75.50;;;;;;4996196;28;20029;-72
2023/04/25 11:05:21;;;;;;;;;;;16.00;84.30;;;;;;5014782;28;20097;-72
2023/04/25 11:07:51;;;;;;;2.33;1.23;;;15.40;90.60;;;;;;5014325;28;19901;-73
2023/04/25 11:10:18;;;;;;;5.35;1.25;;;14.90;87.70;;;;;;5013933;28;20040;-73
2023/04/25 11:12:46;;;;;;;2.28;1.20;;;14.60;93.90;;;;;;4996310;28;20379;-72
2023/04/25 11:15:12;;;;;;;5.20;1.42;;;14.30;95.70;;;;;;4996584;28;20025;-73
2023/04/25 11:17:40;;;;;;;3.78;1.58;;;13.70;99.80;;;;;;4997592;28;20030;-76
2023/04/25 11:20:11;;;;;;;5.85;2.42;;;12.70;99.90;;;;;;4996706;28;20446;-70
2023/04/25 11:22:38;;;;;;;6.28;2.60;;;11.40;99.90;;;;;;4997453;28;20061;-67
2023/04/25 11:25:08;;;;;;;4.22;1.95;;;10.10;99.90;;;;;;5015140;28;20029;-69
2023/04/25 11:27:52;;;;;;;2.75;1.27;;;9.40;99.90;;;;;;5016521;28;20021;-68
2023/04/25 11:30:19;;;;;;;4.05;1.30;;;8.90;99.90;;;;;;4998812;28;20026;-68
2023/04/25 11:32:45;;;;;;;1.70;1.33;;;8.50;99.90;;;;;;4999448;28;20026;-68
2023/04/25 11:35:11;;;;;;;3.90;1.05;;;8.40;99.90;;;;;;5016558;28;20111;-68
2023/04/25 11:37:40;;;;;;;2.65;1.15;;;8.30;99.90;;;;;;5015618;28;20030;-68
2023/04/25 11:40:08;;;;;;;2.93;1.30;;;8.30;99.90;;;;;;5015010;28;20119;-68
2023/04/25 11:42:34;;;;;;;6.85;1.48;;;8.30;99.90;;;;;;4996887;28;20029;-67
2023/04/25 11:45:00;;;;;;;6.80;1.80;;;8.50;99.90;;;;;;5014345;28;20042;-67
2023/04/25 11:47:33;;;;;;;3.25;1.73;;;8.80;99.90;;;;;;5013992;28;20084;-67
2023/04/25 11:49:59;;;;;;;1.20;1.10;;;9.40;99.90;;;;;;5013909;28;20030;-67
2023/04/25 11:52:43;;;;;;;2.47;0.82;;;10.80;99.90;;;;;;5013703;28;20022;-67
2023/04/25 11:55:20;;;;;;;1.73;1.27;;;12.30;99.90;;;;;;4996654;28;20397;-66
2023/04/25 11:57:51;;;;;;;2.08;0.45;;;13.70;99.90;;;;;;5013346;28;20465;-66
2023/04/25 12:00:20;;;;;;;1.23;0.70;;;14.70;99.90;;;;;;5013516;28;20462;-66
2023/04/25 12:03:02;;;;;;;0.63;0.30;;;15.30;99.90;;;;;;5013552;28;20030;-66
2023/04/25 12:05:30;;;;;;;2.20;0.55;;;16.00;99.90;;;;;;5013176;28;20582;-66
2023/04/25 12:07:56;;;;;;;0.40;0.40;;;15.70;99.90;;;;;;5013480;28;20405;-67
2023/04/25 12:10:23;;;;;;;1.38;0.73;;;16.10;99.90;;;;;;4998497;28;20030;-67
2023/04/25 12:12:49;;;;;;;1.15;0.50;;;16.80;97.80;;;;;;5017022;28;20045;-67
2023/04/25 12:15:26;;;;;;;0.68;0.40;;;17.00;97.80;;;;;;5005332;28;20059;-67
2023/04/25 12:17:54;;;;;;;1.30;0.30;;;16.30;97.30;;;;;;5005304;28;20109;-68
2023/04/25 12:20:23;;;;;;;0.75;0.50;;;16.40;96.90;;;;;;4988063;28;20037;-68
2023/04/25 12:22:50;;;;;;;1.85;0.60;;;17.00;95.60;;;;;;4987770;28;20154;-68
2023/04/25 12:25:39;;;;;;;0.90;0.50;;;17.10;94.60;;;;;;4987237;28;20033;-68
2023/04/25 12:28:19;;;;;;;0.38;0.35;;;17.10;91.90;;;;;;5006058;28;20111;-68
2023/04/25 12:31:01;;;;;;;0.88;0.50;;;16.80;91.70;;;;;;5005708;28;20120;-68
2023/04/25 12:33:32;;;;;;;0.40;0.40;;;16.80;90.70;;;;;;4986193;28;20627;-67
2023/04/25 12:35:59;;;;;;;0.50;0.45;;;16.10;93.10;;;;;;5016340;28;20461;-67
2023/04/25 12:38:30;;;;;;;1.63;0.43;;;16.40;91.30;;;;;;5016522;28;20061;-67
2023/04/25 12:40:56;;;;;;;4.80;1.98;;;17.10;90.10;;;;;;5016020;28;20065;-67
2023/04/25 12:43:22;;;;;;;1.90;0.60;;;17.70;86.50;;;;;;5016660;28;20026;-67
2023/04/25 12:45:52;;;;;;;0.98;0.50;;;17.60;84.10;;;;;;5015624;28;20505;-67
2023/04/25 12:48:19;;;;;;;0.45;0.30;;;17.40;81.90;;;;;;5015868;28;20037;-67
2023/04/25 12:50:45;;;;;;;1.95;0.50;;;17.50;83.80;;;;;;5016026;28;20036;-67
2023/04/25 12:53:11;;;;;;;0.68;0.38;;;18.20;82.30;;;;;;5016118;28;20036;-67